Coral Leaf — PHNI — position and weather

sailwx.info

Track history (hours):
 
Tides and Currents Weather Stations Pressure Air Temp Water Temp Dewpoint Dewpoint Depression Visibility Wind Speed Wind Dir Waves Ship Positions

Coral Leaf

Last reported at 2015-May-24 10:33 UTC. Time now 2015-May-25 03:18 UTC.
Position N 58°46' E 009°43'.

Length 108 m; draft 6.7 m.

Type: Ship (hazmat cat A). MMSI: 244036000.

Date/timePositionNaut miles runAvg speedWind from/ knotsBaromVisibWave heightAir tempDewpointWater temp
2015-May-24 10:33N 58°46' E 009°43'1312.6
2015-May-24 09:33N 58°58' E 009°47'9 8.4
2015-May-24 08:33N 59°05' E 009°38'1 1.2
2015-May-24 07:33N 59°06' E 009°36'6 0.4
2015-May-23 14:16N 59°02' E 009°44'6 9.0
2015-May-23 13:33N 58°55' E 009°47'1413.7
2015-May-23 12:33N 58°42' E 009°46'1414.2
2015-May-23 11:33N 58°28' E 009°42'1414.1
2015-May-23 10:34N 58°17' E 009°24'1414.0
2015-May-23 09:34N 58°06' E 009°07'16613.5
2015-May-22 21:17N 55°36' E 007°00'1013.7
2015-May-22 20:33N 55°26' E 007°00'1413.8
2015-May-22 19:33N 55°12' E 007°00'1514.5
2015-May-22 18:33N 54°58' E 007°07'1514.9
2015-May-22 17:33N 54°43' E 007°14'1515.2
2015-May-22 16:33N 54°29' E 007°21'1515.1
2015-May-22 15:33N 54°14' E 007°28'1514.6
2015-May-22 14:33N 54°01' E 007°39'1312.6
2015-May-22 13:34N 53°51' E 007°53'1110.7
2015-May-22 12:34N 53°43' E 008°04'5 4.8
2015-May-22 11:33N 53°39' E 008°06'0 0.0
2015-May-22 10:30N 53°39' E 008°06'0 0.0
2015-May-22 09:33N 53°39' E 008°06'0 0.0
2015-May-22 08:33N 53°39' E 008°06'0 0.0
2015-May-22 07:33N 53°39' E 008°06'0 0.0
2015-May-22 06:33N 53°39' E 008°06'0 0.0
2015-May-22 05:28N 53°39' E 008°06'0 0.0
2015-May-22 04:33N 53°39' E 008°06'0 0.0
2015-May-22 03:32N 53°39' E 008°06'0 0.0
2015-May-22 02:32N 53°39' E 008°06'0 0.0
2015-May-22 01:32N 53°39' E 008°06'0 0.0
2015-May-22 00:32N 53°39' E 008°06'0 0.0
2015-May-21 23:33N 53°39' E 008°06'0 0.0
2015-May-21 22:33N 53°39' E 008°06'0 0.0
2015-May-21 21:33N 53°39' E 008°06'0 0.0
2015-May-21 20:33N 53°39' E 008°06'0 0.0
2015-May-21 19:30N 53°39' E 008°06'0 0.0
2015-May-21 18:27N 53°39' E 008°06'0 0.0
2015-May-21 17:33N 53°39' E 008°06'0 0.0
2015-May-21 16:31N 53°39' E 008°06'0 0.0
2015-May-21 15:33N 53°39' E 008°06'1 0.6
2015-May-21 14:34N 53°39' E 008°06'1010.2
2015-May-21 13:33N 53°48' E 007°58'9 9.1
2015-May-21 12:33N 53°53' E 007°45'5 5.0
2015-May-21 11:33N 53°56' E 007°39'6 5.7
2015-May-21 10:33N 54°01' E 007°34'6 5.9
2015-May-21 09:33N 54°07' E 007°30'6 5.9
2015-May-21 08:33N 54°12' E 007°25'1313.5
2015-May-21 07:33N 54°25' E 007°20'1413.9
2015-May-21 06:33N 54°38' E 007°13'1413.4
2015-May-21 05:33N 54°52' E 007°08'1212.6
2015-May-21 04:33N 55°04' E 007°02'1212.4
2015-May-21 03:33N 55°16' E 006°60'1312.5
2015-May-21 02:33N 55°28' E 006°60'1312.7
2015-May-21 01:32N 55°41' E 006°60'20312.6
2015-May-20 09:27N 58°45' E 009°40'1213.6
2015-May-20 08:32N 58°57' E 009°47'4 0.2
2015-May-19 12:30N 59°00' E 009°47'33013.8
2015-May-18 12:33N 54°12' E 004°58'1413.5
2015-May-18 11:32N 53°59' E 004°52'1413.8
2015-May-18 10:33N 53°45' E 004°51'1513.6
2015-May-18 09:26N 53°30' E 004°46'1315.1
2015-May-18 08:33N 53°18' E 004°36'2215.1
2015-May-18 07:06N 52°59' E 004°20'815.1
2015-May-18 06:33N 52°51' E 004°14'1515.3
2015-May-18 05:33N 52°39' E 003°59'4815.4
2015-May-18 02:25N 51°56' E 003°24'1414.6
2015-May-18 01:27N 51°42' E 003°19'1314.0
2015-May-18 00:34N 51°31' E 003°27'1110.5
2015-May-17 23:33N 51°25' E 003°41'1010.0
2015-May-17 22:34N 51°23' E 003°57'7 7.3
2015-May-17 21:33N 51°22' E 004°08'9 8.9
2015-May-17 20:33N 51°17' E 004°19'2 1.8
2015-May-17 19:30N 51°15' E 004°20'0 0.0
2015-May-17 18:33N 51°15' E 004°20'0 0.0
2015-May-17 17:33N 51°15' E 004°20'0 0.0
2015-May-17 16:33N 51°15' E 004°20'0 0.0
2015-May-17 15:32N 51°15' E 004°20'0 0.0
2015-May-17 14:32N 51°15' E 004°20'0 0.0
2015-May-17 13:32N 51°15' E 004°20'0 0.0
2015-May-17 12:32N 51°15' E 004°20'0 0.0
2015-May-17 11:32N 51°15' E 004°20'0 0.0
2015-May-17 10:32N 51°15' E 004°20'0 0.0
2015-May-17 09:32N 51°15' E 004°20'0 0.0
2015-May-17 08:29N 51°15' E 004°20'0 0.0
2015-May-17 07:32N 51°15' E 004°20'0 0.0
2015-May-17 06:32N 51°15' E 004°20'0 0.0
2015-May-17 05:31N 51°15' E 004°20'0 0.0
2015-May-17 04:31N 51°15' E 004°20'0 0.0
2015-May-17 03:31N 51°15' E 004°20'0 0.2
2015-May-17 02:33N 51°15' E 004°20'4 3.7
2015-May-17 01:33N 51°18' E 004°17'8 7.9
2015-May-17 00:33N 51°22' E 004°06'1010.3
2015-May-16 23:34N 51°21' E 003°50'1111.2
2015-May-16 22:33N 51°26' E 003°34'1313.0
2015-May-16 21:33N 51°37' E 003°22'6412.7
2015-May-16 16:31N 52°28' E 002°19'1713.2
2015-May-16 15:15N 52°44' E 002°12'1111.9
2015-May-16 14:21N 52°52' E 002°01'911.9
2015-May-16 13:34N 52°58' E 001°49'1111.5
2015-May-16 12:34N 53°04' E 001°33'1111.2
2015-May-16 11:34N 53°12' E 001°19'1212.1
2015-May-16 10:33N 53°22' E 001°08'2512.1
2015-May-16 08:26N 53°43' E 000°45'1112.3
2015-May-16 07:33N 53°52' E 000°32'1313.0
2015-May-16 06:34N 54°01' E 000°17'1313.4
2015-May-16 05:33N 54°11' E 000°02'1414.0
2015-May-16 04:33N 54°21' W 000°14'36 3.2
2015-May-15 17:10N 54°36' W 001°11'0 0.0
2015-May-15 16:09N 54°36' W 001°11'0 0.0
2015-May-15 15:31N 54°36' W 001°11'0 0.0
2015-May-15 14:12N 54°36' W 001°11'0 0.0
2015-May-15 13:27N 54°36' W 001°11'0 0.0
2015-May-15 12:20N 54°36' W 001°11'0 0.0
2015-May-15 11:33N 54°36' W 001°11'0 0.0
2015-May-15 10:34N 54°36' W 001°11'0 0.0
2015-May-15 09:22N 54°36' W 001°11'0 0.0
2015-May-15 08:06N 54°36' W 001°11'0 0.0
2015-May-15 07:19N 54°36' W 001°11'0 0.0
2015-May-15 06:33N 54°36' W 001°11'2 1.7
2015-May-15 05:32N 54°37' W 001°09'4 3.8
2015-May-15 04:32N 54°41' W 001°06'3 2.7
2015-May-15 03:31N 54°42' W 001°02'0 0.1
2015-May-15 02:19N 54°42' W 001°02'0 0.0
2015-May-15 01:12N 54°42' W 001°02'0 0.0
2015-May-15 00:30N 54°42' W 001°02'0 0.0
2015-May-14 23:32N 54°42' W 001°02'0 0.1
2015-May-14 22:33N 54°42' W 001°02'0 0.0
2015-May-14 21:33N 54°42' W 001°02'0 0.0
2015-May-14 20:33N 54°42' W 001°02'0 0.0
2015-May-14 19:33N 54°42' W 001°02'0 0.0
2015-May-14 18:13N 54°42' W 001°02'0 0.0
2015-May-14 17:32N 54°42' W 001°02'0 0.0
2015-May-14 16:29N 54°42' W 001°02'0 0.0
2015-May-14 15:29N 54°42' W 001°02'0 0.0
2015-May-14 14:29N 54°42' W 001°02'0 0.0
2015-May-14 13:26N 54°42' W 001°02'0 0.0
2015-May-14 12:17N 54°42' W 001°02'0 0.0
2015-May-14 11:14N 54°42' W 001°02'  
Track history (hours):
 
Tides and Currents Weather Stations Pressure Air Temp Water Temp Dewpoint Dewpoint Depression Visibility Wind Speed Wind Dir Waves Ship Positions

Coral Leaf

Last reported at 2015-May-24 10:33 UTC. Time now 2015-May-25 03:18 UTC.
Position N 58°46' E 009°43'.

Length 108 m; draft 6.7 m.

Type: Ship (hazmat cat A). MMSI: 244036000.

Date/timePositionNaut miles runAvg speedWind from/ knotsBaromVisibWave heightAir tempDewpointWater temp
2015-May-24 10:33N 58°46' E 009°43'1312.6
2015-May-24 09:33N 58°58' E 009°47'9 8.4
2015-May-24 08:33N 59°05' E 009°38'1 1.2
2015-May-24 07:33N 59°06' E 009°36'6 0.4
2015-May-23 14:16N 59°02' E 009°44'6 9.0
2015-May-23 13:33N 58°55' E 009°47'1413.7
2015-May-23 12:33N 58°42' E 009°46'1414.2
2015-May-23 11:33N 58°28' E 009°42'1414.1
2015-May-23 10:34N 58°17' E 009°24'1414.0
2015-May-23 09:34N 58°06' E 009°07'16613.5
2015-May-22 21:17N 55°36' E 007°00'1013.7
2015-May-22 20:33N 55°26' E 007°00'1413.8
2015-May-22 19:33N 55°12' E 007°00'1514.5
2015-May-22 18:33N 54°58' E 007°07'1514.9
2015-May-22 17:33N 54°43' E 007°14'1515.2
2015-May-22 16:33N 54°29' E 007°21'1515.1
2015-May-22 15:33N 54°14' E 007°28'1514.6
2015-May-22 14:33N 54°01' E 007°39'1312.6
2015-May-22 13:34N 53°51' E 007°53'1110.7
2015-May-22 12:34N 53°43' E 008°04'5 4.8
2015-May-22 11:33N 53°39' E 008°06'0 0.0
2015-May-22 10:30N 53°39' E 008°06'0 0.0
2015-May-22 09:33N 53°39' E 008°06'0 0.0
2015-May-22 08:33N 53°39' E 008°06'0 0.0
2015-May-22 07:33N 53°39' E 008°06'0 0.0
2015-May-22 06:33N 53°39' E 008°06'0 0.0
2015-May-22 05:28N 53°39' E 008°06'0 0.0
2015-May-22 04:33N 53°39' E 008°06'0 0.0
2015-May-22 03:32N 53°39' E 008°06'0 0.0
2015-May-22 02:32N 53°39' E 008°06'0 0.0
2015-May-22 01:32N 53°39' E 008°06'0 0.0
2015-May-22 00:32N 53°39' E 008°06'0 0.0
2015-May-21 23:33N 53°39' E 008°06'0 0.0
2015-May-21 22:33N 53°39' E 008°06'0 0.0
2015-May-21 21:33N 53°39' E 008°06'0 0.0
2015-May-21 20:33N 53°39' E 008°06'0 0.0
2015-May-21 19:30N 53°39' E 008°06'0 0.0
2015-May-21 18:27N 53°39' E 008°06'0 0.0
2015-May-21 17:33N 53°39' E 008°06'0 0.0
2015-May-21 16:31N 53°39' E 008°06'0 0.0
2015-May-21 15:33N 53°39' E 008°06'1 0.6
2015-May-21 14:34N 53°39' E 008°06'1010.2
2015-May-21 13:33N 53°48' E 007°58'9 9.1
2015-May-21 12:33N 53°53' E 007°45'5 5.0
2015-May-21 11:33N 53°56' E 007°39'6 5.7
2015-May-21 10:33N 54°01' E 007°34'6 5.9
2015-May-21 09:33N 54°07' E 007°30'6 5.9
2015-May-21 08:33N 54°12' E 007°25'1313.5
2015-May-21 07:33N 54°25' E 007°20'1413.9
2015-May-21 06:33N 54°38' E 007°13'1413.4
2015-May-21 05:33N 54°52' E 007°08'1212.6
2015-May-21 04:33N 55°04' E 007°02'1212.4
2015-May-21 03:33N 55°16' E 006°60'1312.5
2015-May-21 02:33N 55°28' E 006°60'1312.7
2015-May-21 01:32N 55°41' E 006°60'20312.6
2015-May-20 09:27N 58°45' E 009°40'1213.6
2015-May-20 08:32N 58°57' E 009°47'4 0.2
2015-May-19 12:30N 59°00' E 009°47'33013.8
2015-May-18 12:33N 54°12' E 004°58'1413.5
2015-May-18 11:32N 53°59' E 004°52'1413.8
2015-May-18 10:33N 53°45' E 004°51'1513.6
2015-May-18 09:26N 53°30' E 004°46'1315.1
2015-May-18 08:33N 53°18' E 004°36'2215.1
2015-May-18 07:06N 52°59' E 004°20'815.1
2015-May-18 06:33N 52°51' E 004°14'1515.3
2015-May-18 05:33N 52°39' E 003°59'4815.4
2015-May-18 02:25N 51°56' E 003°24'1414.6
2015-May-18 01:27N 51°42' E 003°19'1314.0
2015-May-18 00:34N 51°31' E 003°27'1110.5
2015-May-17 23:33N 51°25' E 003°41'1010.0
2015-May-17 22:34N 51°23' E 003°57'7 7.3
2015-May-17 21:33N 51°22' E 004°08'9 8.9
2015-May-17 20:33N 51°17' E 004°19'2 1.8
2015-May-17 19:30N 51°15' E 004°20'0 0.0
2015-May-17 18:33N 51°15' E 004°20'0 0.0
2015-May-17 17:33N 51°15' E 004°20'0 0.0
2015-May-17 16:33N 51°15' E 004°20'0 0.0
2015-May-17 15:32N 51°15' E 004°20'0 0.0
2015-May-17 14:32N 51°15' E 004°20'0 0.0
2015-May-17 13:32N 51°15' E 004°20'0 0.0
2015-May-17 12:32N 51°15' E 004°20'0 0.0
2015-May-17 11:32N 51°15' E 004°20'0 0.0
2015-May-17 10:32N 51°15' E 004°20'0 0.0
2015-May-17 09:32N 51°15' E 004°20'0 0.0
2015-May-17 08:29N 51°15' E 004°20'0 0.0
2015-May-17 07:32N 51°15' E 004°20'0 0.0
2015-May-17 06:32N 51°15' E 004°20'0 0.0
2015-May-17 05:31N 51°15' E 004°20'0 0.0
2015-May-17 04:31N 51°15' E 004°20'0 0.0
2015-May-17 03:31N 51°15' E 004°20'0 0.2
2015-May-17 02:33N 51°15' E 004°20'4 3.7
2015-May-17 01:33N 51°18' E 004°17'8 7.9
2015-May-17 00:33N 51°22' E 004°06'1010.3
2015-May-16 23:34N 51°21' E 003°50'1111.2
2015-May-16 22:33N 51°26' E 003°34'1313.0
2015-May-16 21:33N 51°37' E 003°22'6412.7
2015-May-16 16:31N 52°28' E 002°19'1713.2
2015-May-16 15:15N 52°44' E 002°12'1111.9
2015-May-16 14:21N 52°52' E 002°01'911.9
2015-May-16 13:34N 52°58' E 001°49'1111.5
2015-May-16 12:34N 53°04' E 001°33'1111.2
2015-May-16 11:34N 53°12' E 001°19'1212.1
2015-May-16 10:33N 53°22' E 001°08'2512.1
2015-May-16 08:26N 53°43' E 000°45'1112.3
2015-May-16 07:33N 53°52' E 000°32'1313.0
2015-May-16 06:34N 54°01' E 000°17'1313.4
2015-May-16 05:33N 54°11' E 000°02'1414.0
2015-May-16 04:33N 54°21' W 000°14'36 3.2
2015-May-15 17:10N 54°36' W 001°11'0 0.0
2015-May-15 16:09N 54°36' W 001°11'0 0.0
2015-May-15 15:31N 54°36' W 001°11'0 0.0
2015-May-15 14:12N 54°36' W 001°11'0 0.0
2015-May-15 13:27N 54°36' W 001°11'0 0.0
2015-May-15 12:20N 54°36' W 001°11'0 0.0
2015-May-15 11:33N 54°36' W 001°11'0 0.0
2015-May-15 10:34N 54°36' W 001°11'0 0.0
2015-May-15 09:22N 54°36' W 001°11'0 0.0
2015-May-15 08:06N 54°36' W 001°11'0 0.0
2015-May-15 07:19N 54°36' W 001°11'0 0.0
2015-May-15 06:33N 54°36' W 001°11'2 1.7
2015-May-15 05:32N 54°37' W 001°09'4 3.8
2015-May-15 04:32N 54°41' W 001°06'3 2.7
2015-May-15 03:31N 54°42' W 001°02'0 0.1
2015-May-15 02:19N 54°42' W 001°02'0 0.0
2015-May-15 01:12N 54°42' W 001°02'0 0.0
2015-May-15 00:30N 54°42' W 001°02'0 0.0
2015-May-14 23:32N 54°42' W 001°02'0 0.1
2015-May-14 22:33N 54°42' W 001°02'0 0.0
2015-May-14 21:33N 54°42' W 001°02'0 0.0
2015-May-14 20:33N 54°42' W 001°02'0 0.0
2015-May-14 19:33N 54°42' W 001°02'0 0.0
2015-May-14 18:13N 54°42' W 001°02'0 0.0
2015-May-14 17:32N 54°42' W 001°02'0 0.0
2015-May-14 16:29N 54°42' W 001°02'0 0.0
2015-May-14 15:29N 54°42' W 001°02'0 0.0
2015-May-14 14:29N 54°42' W 001°02'0 0.0
2015-May-14 13:26N 54°42' W 001°02'0 0.0
2015-May-14 12:17N 54°42' W 001°02'0 0.0
2015-May-14 11:14N 54°42' W 001°02'  

Dump ship's entire track history